Time;durP1;ratioP1;P1;durP2;ratioP2;P2;SDS_P1;SDS_P2;PMS_P1;PMS_P2;Temp;Humidity;BMP_temperature;BMP_pressure;BME280_temperature;BME280_humidity;BME280_pressure;Samples;Min_cycle;Max_cycle;Signal;HPM_P1;HPM_P2
2021/05/02 00:00:12;;;;;;;13.32;4.72;;;537.80;2048.00;;;;;;5073301;28;20373;-70
2021/05/02 00:02:38;;;;;;;11.93;4.68;;;537.80;2022.40;;;;;;5073361;28;20368;-70
2021/05/02 00:05:05;;;;;;;12.35;4.07;;;537.80;2048.00;;;;;;5073181;28;20442;-70
2021/05/02 00:07:32;;;;;;;10.95;4.10;;;537.80;2048.00;;;;;;5073249;28;20073;-67
2021/05/02 00:09:58;;;;;;;12.43;3.75;;;537.80;2022.40;;;;;;5073263;28;20420;-70
2021/05/02 00:12:26;;;;;;;10.63;3.63;;;537.80;2048.00;;;;;;5073279;28;20415;-67
2021/05/02 00:14:52;;;;;;;10.60;4.82;;;537.80;2073.60;;;;;;5073237;28;20464;-63
2021/05/02 00:17:19;;;;;;;12.10;4.82;;;537.80;2048.00;;;;;;5073444;28;20370;-63
2021/05/02 00:19:46;;;;;;;9.52;3.75;;;537.70;2022.40;;;;;;5073280;28;20411;-63
2021/05/02 00:22:15;;;;;;;13.43;4.50;;;537.80;2048.00;;;;;;5073194;28;20380;-63
2021/05/02 00:24:41;;;;;;;12.93;4.53;;;537.80;2048.00;;;;;;5073308;28;20396;-63
2021/05/02 00:27:07;;;;;;;10.48;4.15;;;537.80;2022.40;;;;;;5073179;28;20368;-63
2021/05/02 00:29:36;;;;;;;10.75;4.80;;;537.80;2073.60;;;;;;5073221;28;20418;-63
2021/05/02 00:32:03;;;;;;;13.20;4.22;;;537.70;2073.60;;;;;;5073398;28;20353;-63
2021/05/02 00:34:29;;;;;;;12.30;4.80;;;537.80;2073.60;;;;;;5072942;28;20411;-63
2021/05/02 00:36:56;;;;;;;13.80;4.30;;;537.80;2073.60;;;;;;5073049;28;20089;-63
2021/05/02 00:39:22;;;;;;;14.05;4.70;;;537.80;2022.40;;;;;;5073321;28;20368;-63
2021/05/02 00:41:57;;;;;;;10.93;4.70;;;537.80;2022.40;;;;;;5073102;28;20350;-63
2021/05/02 00:44:28;;;;;;;12.73;5.50;;;537.80;2048.00;;;;;;5077017;28;20445;-63
2021/05/02 00:47:01;;;;;;;15.23;5.82;;;537.70;2073.60;;;;;;5077702;28;20417;-63
2021/05/02 00:49:40;;;;;;;19.45;6.40;;;537.70;2048.00;;;;;;5076853;28;20451;-68
2021/05/02 00:52:30;;;;;;;17.00;5.80;;;537.70;2073.60;;;;;;5076739;28;20502;-63
2021/05/02 00:55:06;;;;;;;16.30;7.30;;;537.60;2073.60;;;;;;5077016;28;20384;-63
2021/05/02 00:57:43;;;;;;;16.85;7.25;;;537.60;2073.60;;;;;;5076955;28;20115;-63
2021/05/02 01:00:10;;;;;;;17.58;7.38;;;537.60;2073.60;;;;;;5076597;28;20440;-63
2021/05/02 01:02:37;;;;;;;15.48;6.47;;;512.90;2048.00;;;;;;5075358;28;20373;-63
2021/05/02 01:05:06;;;;;;;14.00;6.68;;;512.90;1996.80;;;;;;5076753;28;20473;-64
2021/05/02 01:07:38;;;;;;;12.82;5.47;;;537.60;2022.40;;;;;;5076487;28;20443;-63
2021/05/02 01:10:12;;;;;;;14.38;5.40;;;537.60;1996.80;;;;;;5076406;28;20456;-63
2021/05/02 01:12:56;;;;;;;11.35;5.60;;;537.60;1996.80;;;;;;5076444;28;20365;-63
2021/05/02 01:15:28;;;;;;;13.43;6.50;;;537.60;2022.40;;;;;;5076607;28;20342;-63
2021/05/02 01:18:03;;;;;;;14.70;5.63;;;537.60;2022.40;;;;;;5076336;28;20479;-63
2021/05/02 01:20:36;;;;;;;14.43;5.70;;;537.60;1996.80;;;;;;5076245;28;20400;-63
2021/05/02 01:23:08;;;;;;;16.60;5.78;;;537.60;1996.80;;;;;;5076274;28;20420;-63
2021/05/02 01:25:36;;;;;;;9.38;4.85;;;537.60;1996.80;;;;;;5076451;28;20355;-63
2021/05/02 01:28:03;;;;;;;12.23;5.38;;;537.60;1996.80;;;;;;5076144;28;20104;-63
2021/05/02 01:30:30;;;;;;;8.65;4.00;;;537.60;1996.80;;;;;;5076026;28;20369;-64
2021/05/02 01:32:56;;;;;;;8.23;3.70;;;537.60;1971.20;;;;;;5076045;28;20457;-63
2021/05/02 01:35:23;;;;;;;6.80;3.65;;;512.90;1945.60;;;;;;5075766;28;20416;-63
2021/05/02 01:37:50;;;;;;;7.80;3.47;;;512.90;1945.60;;;;;;5075855;28;20401;-63
2021/05/02 01:40:18;;;;;;;8.38;2.85;;;512.90;1920.00;;;;;;5075903;28;20411;-63
2021/05/02 01:42:45;;;;;;;8.55;3.05;;;512.90;1920.00;;;;;;5075818;28;20365;-67
2021/05/02 01:45:12;;;;;;;9.15;3.03;;;512.90;1945.60;;;;;;5075813;28;20445;-63
2021/05/02 01:47:48;;;;;;;5.35;2.75;;;512.90;1945.60;;;;;;5075735;28;20369;-63
2021/05/02 01:50:16;;;;;;;8.77;3.17;;;512.90;1945.60;;;;;;5075803;28;20405;-63
2021/05/02 01:52:48;;;;;;;10.95;3.22;;;512.90;1920.00;;;;;;5075735;28;20350;-64
2021/05/02 01:55:17;;;;;;;7.03;2.70;;;512.90;1920.00;;;;;;5074938;28;20353;-63
2021/05/02 01:57:46;;;;;;;7.60;2.67;;;512.90;1920.00;;;;;;5074208;28;20354;-64
2021/05/02 02:00:34;;;;;;;6.07;2.53;;;512.80;1920.00;;;;;;5075486;28;20395;-63
2021/05/02 02:03:03;;;;;;;6.40;2.60;;;512.80;1920.00;;;;;;5064529;28;20385;-63
2021/05/02 02:05:30;;;;;;;7.97;2.30;;;512.80;1920.00;;;;;;5075735;28;20350;-63
2021/05/02 02:07:57;;;;;;;6.97;2.47;;;512.80;1920.00;;;;;;5075353;28;20478;-63
2021/05/02 02:10:25;;;;;;;7.65;2.70;;;512.70;1894.40;;;;;;5075279;28;20346;-63
2021/05/02 02:12:52;;;;;;;4.30;2.20;;;512.70;1894.40;;;;;;5075570;28;20458;-63
2021/05/02 02:15:19;;;;;;;7.45;2.08;;;512.60;1894.40;;;;;;5075272;28;20369;-63
2021/05/02 02:17:46;;;;;;;7.78;2.45;;;512.60;1920.00;;;;;;5075410;28;20465;-63
2021/05/02 02:20:13;;;;;;;6.57;2.70;;;512.60;1920.00;;;;;;5075145;28;20342;-63
2021/05/02 02:22:41;;;;;;;9.63;2.55;;;512.60;1920.00;;;;;;5075374;28;20370;-63
2021/05/02 02:25:11;;;;;;;8.20;2.25;;;512.60;1920.00;;;;;;5075014;28;20441;-63
2021/05/02 02:27:39;;;;;;;6.30;2.50;;;512.50;1920.00;;;;;;5074966;28;20422;-63
2021/05/02 02:30:07;;;;;;;7.38;2.40;;;512.40;1920.00;;;;;;5074906;28;20354;-63
2021/05/02 02:32:44;;;;;;;4.47;1.98;;;512.40;1920.00;;;;;;5075155;28;20392;-63
2021/05/02 02:35:14;;;;;;;7.60;2.63;;;512.30;1945.60;;;;;;5074673;28;20465;-63
2021/05/02 02:37:45;;;;;;;5.63;2.35;;;512.20;1945.60;;;;;;5074408;28;20334;-63
2021/05/02 02:40:14;;;;;;;5.50;2.10;;;512.10;1945.60;;;;;;5074760;28;20380;-63
2021/05/02 02:42:45;;;;;;;7.88;2.13;;;512.00;1945.60;;;;;;5074588;28;20384;-63
2021/05/02 02:45:13;;;;;;;3.60;1.58;;;512.00;1945.60;;;;;;5074719;28;20065;-63
2021/05/02 02:47:46;;;;;;;5.95;2.10;;;487.30;1945.60;;;;;;5074612;28;20069;-63
2021/05/02 02:50:16;;;;;;;7.43;2.03;;;487.20;1971.20;;;;;;5074567;28;20418;-63
2021/05/02 02:53:02;;;;;;;5.88;2.25;;;487.20;1971.20;;;;;;5074455;28;20498;-63
2021/05/02 02:55:29;;;;;;;5.50;1.83;;;487.10;1971.20;;;;;;5074139;28;20468;-63
2021/05/02 02:58:00;;;;;;;3.08;1.48;;;487.10;1971.20;;;;;;5074274;28;20350;-64
2021/05/02 03:00:32;;;;;;;4.43;1.70;;;487.00;1996.80;;;;;;5074431;28;20582;-63
2021/05/02 03:03:13;;;;;;;3.38;1.70;;;486.90;1996.80;;;;;;5074250;28;20366;-63
2021/05/02 03:05:40;;;;;;;5.03;1.83;;;486.90;1996.80;;;;;;5073674;28;20365;-63
2021/05/02 03:08:09;;;;;;;6.18;1.80;;;486.80;1996.80;;;;;;5074016;28;20339;-63
2021/05/02 03:10:39;;;;;;;4.63;1.30;;;486.80;1996.80;;;;;;5074365;28;20428;-63
2021/05/02 03:13:05;;;;;;;4.90;1.80;;;486.70;1996.80;;;;;;5074323;28;20463;-63
2021/05/02 03:15:32;;;;;;;7.45;1.88;;;486.70;1996.80;;;;;;5073978;28;20373;-63
2021/05/02 03:18:03;;;;;;;5.80;1.55;;;486.70;1996.80;;;;;;5073940;28;20377;-62
2021/05/02 03:20:35;;;;;;;3.53;1.17;;;486.60;1996.80;;;;;;5073985;28;20428;-63
2021/05/02 03:23:18;;;;;;;4.13;1.42;;;486.70;1996.80;;;;;;5073940;28;20366;-63
2021/05/02 03:25:47;;;;;;;4.72;1.40;;;486.60;1996.80;;;;;;5073904;28;20461;-63
2021/05/02 03:28:27;;;;;;;3.35;1.35;;;486.70;1996.80;;;;;;5073849;28;20357;-63
2021/05/02 03:30:53;;;;;;;6.55;1.45;;;486.70;1971.20;;;;;;5073810;28;20391;-63
2021/05/02 03:33:24;;;;;;;4.45;1.33;;;486.60;1971.20;;;;;;5073765;28;20369;-70
2021/05/02 03:35:51;;;;;;;5.20;1.40;;;486.60;1996.80;;;;;;5073611;28;20501;-69
2021/05/02 03:38:23;;;;;;;4.78;1.58;;;486.50;1996.80;;;;;;5073709;28;20373;-69
2021/05/02 03:40:55;;;;;;;4.47;1.45;;;486.50;1996.80;;;;;;5073655;28;20408;-68
2021/05/02 03:43:21;;;;;;;4.60;1.63;;;486.60;1996.80;;;;;;5073647;28;20466;-69
2021/05/02 03:45:47;;;;;;;3.83;1.50;;;486.50;1996.80;;;;;;5073651;28;20361;-63
2021/05/02 03:48:14;;;;;;;11.48;1.88;;;486.50;1996.80;;;;;;5073602;28;20388;-63
2021/05/02 03:50:40;;;;;;;2.92;1.50;;;486.50;1996.80;;;;;;5073541;28;20433;-63
2021/05/02 03:53:06;;;;;;;4.32;1.48;;;486.50;2022.40;;;;;;5073514;28;20465;-63
2021/05/02 03:55:47;;;;;;;5.63;1.65;;;486.50;2022.40;;;;;;5073482;28;20416;-63
2021/05/02 03:58:17;;;;;;;5.47;1.40;;;486.50;2022.40;;;;;;5073662;28;20421;-63
2021/05/02 04:00:44;;;;;;;3.63;1.65;;;486.40;2022.40;;;;;;5073467;28;20052;-62
2021/05/02 04:03:14;;;;;;;5.60;1.70;;;486.40;2022.40;;;;;;5073446;28;20395;-63
2021/05/02 04:05:42;;;;;;;5.63;1.85;;;486.40;2022.40;;;;;;5073692;28;20371;-63
2021/05/02 04:08:10;;;;;;;5.00;1.40;;;486.50;2022.40;;;;;;5072113;28;20461;-63
2021/05/02 04:10:36;;;;;;;5.18;1.70;;;486.50;2022.40;;;;;;5073429;28;20369;-63
2021/05/02 04:13:02;;;;;;;6.10;1.73;;;486.50;2022.40;;;;;;5073351;28;20368;-63
2021/05/02 04:15:28;;;;;;;4.72;1.67;;;486.40;2022.40;;;;;;5073381;28;20395;-63
2021/05/02 04:17:54;;;;;;;11.10;1.67;;;486.40;2022.40;;;;;;5075092;28;20353;-63
2021/05/02 04:20:20;;;;;;;10.32;1.98;;;486.40;2022.40;;;;;;5077360;28;20369;-63
2021/05/02 04:22:48;;;;;;;6.07;1.85;;;486.50;2022.40;;;;;;5077445;28;20361;-63
2021/05/02 04:25:15;;;;;;;3.40;1.58;;;486.50;2022.40;;;;;;5077311;28;20444;-63
2021/05/02 04:27:41;;;;;;;6.63;1.98;;;486.50;2022.40;;;;;;5077362;28;20017;-63
2021/05/02 04:30:07;;;;;;;4.47;1.50;;;486.50;2048.00;;;;;;5077235;28;20431;-63
2021/05/02 04:32:34;;;;;;;5.38;1.50;;;486.50;2048.00;;;;;;5077131;28;20368;-63
2021/05/02 04:35:00;;;;;;;3.42;1.67;;;486.50;2022.40;;;;;;5076983;28;20380;-63
2021/05/02 04:37:26;;;;;;;8.02;2.10;;;486.50;2022.40;;;;;;5077269;28;20437;-63
2021/05/02 04:39:52;;;;;;;5.80;1.60;;;486.60;2048.00;;;;;;5076972;28;20388;-63
2021/05/02 04:42:18;;;;;;;10.68;2.30;;;486.60;2048.00;;;;;;5077230;28;20342;-63
2021/05/02 04:44:44;;;;;;;10.32;2.40;;;486.60;2048.00;;;;;;5076977;28;20368;-63
2021/05/02 04:47:18;;;;;;;9.32;2.20;;;486.60;2048.00;;;;;;5076893;28;20414;-63
2021/05/02 04:49:45;;;;;;;5.93;1.70;;;486.60;2048.00;;;;;;5077129;28;20381;-63
2021/05/02 04:52:13;;;;;;;3.80;1.58;;;486.60;2048.00;;;;;;5076777;28;20032;-63
2021/05/02 04:54:40;;;;;;;8.15;2.17;;;486.60;2048.00;;;;;;5076830;28;20441;-63
2021/05/02 04:57:07;;;;;;;5.97;1.90;;;486.60;2048.00;;;;;;5076661;28;20445;-63
2021/05/02 04:59:33;;;;;;;6.88;2.20;;;486.60;2048.00;;;;;;5076876;28;20365;-63
2021/05/02 05:02:00;;;;;;;6.38;2.00;;;486.60;2048.00;;;;;;5076568;28;20415;-63
2021/05/02 05:04:26;;;;;;;3.60;2.08;;;486.60;2048.00;;;;;;5076599;28;20350;-62
2021/05/02 05:06:54;;;;;;;7.30;2.65;;;486.70;2048.00;;;;;;5076556;28;20449;-62
2021/05/02 05:09:20;;;;;;;8.68;2.72;;;486.70;2048.00;;;;;;5076710;28;20473;-63
2021/05/02 05:11:47;;;;;;;6.32;2.35;;;486.80;2048.00;;;;;;5076495;28;20365;-63
2021/05/02 05:14:13;;;;;;;8.98;2.50;;;486.90;2022.40;;;;;;5076421;28;20020;-63
2021/05/02 05:16:39;;;;;;;4.68;2.50;;;486.90;2022.40;;;;;;5076347;28;20392;-62
2021/05/02 05:19:05;;;;;;;7.18;2.60;;;486.90;2048.00;;;;;;5076253;28;20381;-63
2021/05/02 05:21:32;;;;;;;8.43;2.83;;;487.10;2048.00;;;;;;5076308;28;20070;-63
2021/05/02 05:23:58;;;;;;;8.45;3.03;;;487.10;2022.40;;;;;;5076240;28;20052;-63
2021/05/02 05:26:24;;;;;;;6.95;2.90;;;487.10;2048.00;;;;;;5076073;28;20365;-63
2021/05/02 05:28:50;;;;;;;13.93;3.28;;;487.10;2022.40;;;;;;5075228;28;20334;-63
2021/05/02 05:31:16;;;;;;;7.03;2.80;;;487.20;2048.00;;;;;;5076024;28;20417;-63
2021/05/02 05:33:42;;;;;;;8.07;2.90;;;487.20;2048.00;;;;;;5075878;28;20373;-63
2021/05/02 05:36:09;;;;;;;7.10;2.90;;;487.30;2022.40;;;;;;5076345;28;20074;-63
2021/05/02 05:38:35;;;;;;;9.60;3.40;;;512.00;1996.80;;;;;;5075856;28;20459;-63
2021/05/02 05:41:01;;;;;;;6.97;2.90;;;512.00;2022.40;;;;;;5075904;28;20369;-63
2021/05/02 05:43:27;;;;;;;10.35;2.60;;;512.10;1971.20;;;;;;5075818;28;20488;-63
2021/05/02 05:45:54;;;;;;;4.70;2.53;;;512.20;1971.20;;;;;;5075828;28;20364;-63
2021/05/02 05:48:21;;;;;;;7.35;2.38;;;512.30;1945.60;;;;;;5075743;28;20378;-63
2021/05/02 05:50:48;;;;;;;10.23;2.47;;;512.40;1945.60;;;;;;5075796;28;20400;-63
2021/05/02 05:53:16;;;;;;;7.47;2.70;;;512.60;1945.60;;;;;;5075966;28;20369;-63
2021/05/02 05:55:43;;;;;;;8.30;2.90;;;512.60;1920.00;;;;;;5075954;28;20476;-63
2021/05/02 05:58:09;;;;;;;7.80;3.08;;;512.70;1920.00;;;;;;5075553;28;20388;-63
2021/05/02 06:00:36;;;;;;;8.85;3.03;;;512.80;1920.00;;;;;;5075589;28;20415;-63
2021/05/02 06:03:02;;;;;;;9.02;3.20;;;512.80;1920.00;;;;;;5075457;28;20429;-63
2021/05/02 06:05:28;;;;;;;10.02;3.72;;;512.90;1920.00;;;;;;5075529;28;20372;-63
2021/05/02 06:07:54;;;;;;;12.05;3.53;;;537.60;1945.60;;;;;;5075460;28;20372;-69
2021/05/02 06:13:43;;;;;;;10.02;3.58;;;537.80;1945.60;;;;;;5075423;28;20020;-63
2021/05/02 06:16:09;;;;;;;26.13;4.45;;;537.70;1945.60;;;;;;5075815;28;20458;-63
2021/05/02 06:18:35;;;;;;;13.23;2.65;;;537.80;1971.20;;;;;;5075193;28;20407;-63
2021/05/02 06:21:01;;;;;;;9.82;2.70;;;537.90;1945.60;;;;;;5075157;28;20388;-63
2021/05/02 06:23:27;;;;;;;23.15;3.85;;;538.00;1920.00;;;;;;5075052;28;20532;-63
2021/05/02 06:25:53;;;;;;;14.95;2.88;;;538.10;1920.00;;;;;;5075309;28;20361;-63
2021/05/02 06:28:19;;;;;;;7.18;2.72;;;538.20;1920.00;;;;;;5074936;28;20369;-63
2021/05/02 06:30:45;;;;;;;11.60;3.50;;;538.50;1920.00;;;;;;5074949;28;20400;-63
2021/05/02 06:33:11;;;;;;;13.88;3.10;;;563.20;1868.80;;;;;;5074988;28;20373;-63
2021/05/02 06:35:37;;;;;;;10.57;2.95;;;563.20;1868.80;;;;;;5074594;28;20393;-63
2021/05/02 06:38:03;;;;;;;14.45;4.18;;;563.20;1843.20;;;;;;5074974;28;20373;-63
2021/05/02 06:40:29;;;;;;;16.35;4.60;;;563.40;1868.80;;;;;;5074427;28;20402;-63
2021/05/02 06:42:55;;;;;;;11.45;4.10;;;563.60;1843.20;;;;;;5074752;28;20365;-70
2021/05/02 06:45:22;;;;;;;9.30;2.58;;;563.80;1843.20;;;;;;5074883;28;20364;-66
2021/05/02 06:47:48;;;;;;;10.52;2.70;;;564.00;1792.00;;;;;;5074558;28;20346;-63
2021/05/02 06:50:14;;;;;;;12.27;3.15;;;564.10;1740.80;;;;;;5074521;28;20419;-63
2021/05/02 06:52:41;;;;;;;9.82;3.03;;;588.80;1766.40;;;;;;5074560;28;20459;-63
2021/05/02 06:55:07;;;;;;;10.15;2.70;;;588.80;1740.80;;;;;;5074512;28;20373;-63
2021/05/02 06:57:33;;;;;;;9.27;2.50;;;588.80;1715.20;;;;;;5074595;28;20423;-67
2021/05/02 07:00:00;;;;;;;9.82;2.55;;;588.90;1689.60;;;;;;5074349;28;20408;-64
2021/05/02 07:02:26;;;;;;;12.63;2.50;;;588.90;1664.00;;;;;;5074270;28;20441;-69
2021/05/02 07:04:52;;;;;;;10.48;2.58;;;589.00;1664.00;;;;;;5074231;28;20365;-64
2021/05/02 07:07:18;;;;;;;10.15;2.20;;;589.10;1664.00;;;;;;5074282;28;20458;-63
2021/05/02 07:09:44;;;;;;;14.63;2.63;;;589.30;1664.00;;;;;;5074134;28;20384;-67
2021/05/02 07:12:10;;;;;;;13.35;2.38;;;589.40;1689.60;;;;;;5074154;28;20374;-64
2021/05/02 07:14:36;;;;;;;9.00;2.67;;;589.50;1689.60;;;;;;5074075;28;20338;-64
2021/05/02 07:17:03;;;;;;;13.05;2.85;;;589.50;1664.00;;;;;;5073947;28;20027;-64
2021/05/02 07:19:29;;;;;;;12.68;2.40;;;589.50;1664.00;;;;;;5073989;28;20469;-64
2021/05/02 07:22:03;;;;;;;9.52;2.65;;;589.60;1638.40;;;;;;5074024;28;20369;-63
2021/05/02 07:24:30;;;;;;;10.02;2.13;;;614.40;1638.40;;;;;;5073881;28;20031;-63
2021/05/02 07:26:57;;;;;;;20.00;3.10;;;614.40;1638.40;;;;;;5073909;28;20504;-64
2021/05/02 07:29:23;;;;;;;9.18;2.72;;;614.40;1638.40;;;;;;5073771;28;20377;-63
2021/05/02 07:31:50;;;;;;;11.68;3.03;;;589.70;1612.80;;;;;;5074074;28;20048;-70
2021/05/02 07:34:17;;;;;;;13.73;2.70;;;589.60;1638.40;;;;;;5073966;28;20422;-63
2021/05/02 07:36:43;;;;;;;13.23;2.33;;;589.60;1638.40;;;;;;5073919;28;20388;-63
2021/05/02 07:39:10;;;;;;;14.70;2.70;;;589.50;1638.40;;;;;;5074088;28;20369;-63
2021/05/02 07:41:36;;;;;;;17.30;3.00;;;589.60;1638.40;;;;;;5073648;28;20460;-64
2021/05/02 07:44:03;;;;;;;11.68;2.60;;;589.70;1587.20;;;;;;5073722;28;20392;-63
2021/05/02 07:46:29;;;;;;;11.57;2.80;;;614.40;1638.40;;;;;;5073692;28;20013;-69
2021/05/02 07:48:55;;;;;;;15.52;3.42;;;614.50;1689.60;;;;;;5073638;28;20484;-63
2021/05/02 07:51:21;;;;;;;16.42;3.50;;;614.50;1612.80;;;;;;5073692;28;20395;-63
2021/05/02 07:53:47;;;;;;;11.70;2.70;;;614.50;1587.20;;;;;;5071869;28;20346;-64
2021/05/02 07:56:14;;;;;;;15.98;2.88;;;614.50;1587.20;;;;;;5073547;28;20368;-64
2021/05/02 07:58:40;;;;;;;13.07;3.33;;;614.50;1587.20;;;;;;5073424;28;20412;-63
2021/05/02 08:01:06;;;;;;;12.98;2.60;;;614.60;1561.60;;;;;;5073637;28;20357;-72
2021/05/02 08:03:32;;;;;;;14.90;2.88;;;614.70;1536.00;;;;;;5073376;28;20438;-66
2021/05/02 08:05:58;;;;;;;15.07;2.63;;;614.70;1561.60;;;;;;5073168;28;20377;-70
2021/05/02 08:08:24;;;;;;;13.85;2.50;;;614.80;1510.40;;;;;;5073291;28;20408;-72
2021/05/02 08:10:50;;;;;;;15.10;2.55;;;614.80;1561.60;;;;;;5073967;28;20384;-71
2021/05/02 08:13:18;;;;;;;15.15;2.92;;;614.90;1561.60;;;;;;5073862;28;20410;-71
2021/05/02 08:15:44;;;;;;;11.70;2.70;;;614.90;1510.40;;;;;;5073236;28;20403;-71
2021/05/02 08:18:10;;;;;;;11.43;2.67;;;614.90;1536.00;;;;;;5073177;28;20377;-72
2021/05/02 08:20:37;;;;;;;19.67;2.63;;;614.90;1561.60;;;;;;5073241;28;20369;-70
2021/05/02 08:23:03;;;;;;;14.95;3.05;;;614.90;1561.60;;;;;;5073432;28;20415;-65
2021/05/02 08:25:29;;;;;;;16.58;2.33;;;614.90;1484.80;;;;;;5073122;28;20547;-72
2021/05/02 08:27:56;;;;;;;14.30;2.53;;;614.90;1510.40;;;;;;5073119;28;20346;-69
2021/05/02 08:30:22;;;;;;;15.20;3.03;;;615.00;1536.00;;;;;;5073166;28;20096;-71
2021/05/02 08:32:48;;;;;;;12.70;2.35;;;615.00;1510.40;;;;;;5073110;28;20419;-70
2021/05/02 08:35:14;;;;;;;16.30;3.00;;;615.10;1484.80;;;;;;5072915;28;20420;-65
2021/05/02 08:37:40;;;;;;;15.23;3.30;;;615.10;1510.40;;;;;;5073034;28;20365;-70
2021/05/02 08:40:08;;;;;;;12.27;2.47;;;615.10;1484.80;;;;;;5072979;28;20342;-63
2021/05/02 08:42:34;;;;;;;12.75;2.65;;;615.10;1484.80;;;;;;5072980;28;20369;-64
2021/05/02 08:45:01;;;;;;;13.82;2.72;;;615.20;1510.40;;;;;;5072971;28;20364;-64
2021/05/02 08:47:34;;;;;;;16.05;3.08;;;615.30;1459.20;;;;;;5073029;28;20342;-71
2021/05/02 08:50:00;;;;;;;21.60;2.50;;;615.30;1459.20;;;;;;5072864;28;20393;-65
2021/05/02 08:52:26;;;;;;;8.63;2.28;;;640.00;1459.20;;;;;;5072840;28;20400;-64
2021/05/02 08:54:52;;;;;;;14.32;2.58;;;615.30;1382.40;;;;;;5072699;28;20384;-66
2021/05/02 08:57:19;;;;;;;15.35;2.97;;;615.30;1408.00;;;;;;5072695;28;20389;-70
2021/05/02 08:59:45;;;;;;;12.52;2.17;;;615.30;1433.60;;;;;;5073155;28;20357;-69
2021/05/02 09:02:31;;;;;;;16.73;3.25;;;615.30;1433.60;;;;;;5072854;28;20420;-64
2021/05/02 09:05:00;;;;;;;11.43;2.70;;;615.30;1408.00;;;;;;5076238;28;20013;-71
2021/05/02 09:07:26;;;;;;;13.77;2.53;;;640.00;1408.00;;;;;;5076761;28;20403;-71
2021/05/02 09:09:53;;;;;;;15.60;2.85;;;640.00;1382.40;;;;;;5076483;28;20408;-72
2021/05/02 09:12:22;;;;;;;14.48;2.60;;;640.00;1408.00;;;;;;5076416;28;20381;-65
2021/05/02 09:14:49;;;;;;;11.15;2.63;;;640.10;1408.00;;;;;;5076417;28;20476;-71
2021/05/02 09:17:25;;;;;;;31.15;2.90;;;640.10;1356.80;;;;;;5076863;28;20533;-72
2021/05/02 09:19:52;;;;;;;11.73;3.15;;;640.00;1331.20;;;;;;5076602;28;20377;-67
2021/05/02 09:22:20;;;;;;;10.85;2.25;;;640.00;1356.80;;;;;;5076320;28;20423;-71
2021/05/02 09:25:10;;;;;;;32.22;2.88;;;640.10;1356.80;;;;;;5076179;28;20365;-72
2021/05/02 09:27:50;;;;;;;14.70;2.97;;;640.20;1408.00;;;;;;5076290;28;20024;-70
2021/05/02 09:30:20;;;;;;;16.20;2.97;;;640.20;1331.20;;;;;;5076032;28;20369;-64
2021/05/02 09:32:49;;;;;;;20.92;2.90;;;640.20;1305.60;;;;;;5076107;28;20400;-68
2021/05/02 09:35:28;;;;;;;11.68;2.75;;;640.30;1305.60;;;;;;5075822;28;20491;-65
2021/05/02 09:38:14;;;;;;;15.43;3.13;;;640.50;1331.20;;;;;;5074685;28;20381;-69
2021/05/02 09:40:44;;;;;;;12.93;2.72;;;640.50;1331.20;;;;;;5076249;28;20373;-65
2021/05/02 09:43:41;;;;;;;19.83;3.90;;;640.50;1331.20;;;;;;5076561;28;20360;-65
2021/05/02 09:46:08;;;;;;;16.80;3.30;;;640.50;1254.40;;;;;;5076478;28;20353;-64
2021/05/02 09:48:34;;;;;;;20.20;4.65;;;640.50;1305.60;;;;;;5076452;28;20567;-65
2021/05/02 09:51:13;;;;;;;21.30;3.47;;;640.50;1331.20;;;;;;5075789;28;20342;-66
2021/05/02 09:53:40;;;;;;;25.27;4.00;;;640.60;1305.60;;;;;;5075935;28;20385;-64
2021/05/02 09:56:15;;;;;;;30.50;4.10;;;640.60;1254.40;;;;;;5075701;28;20492;-64
2021/05/02 09:58:41;;;;;;;22.05;4.60;;;640.60;1254.40;;;;;;5075644;28;20343;-64
2021/05/02 10:01:15;;;;;;;19.30;3.58;;;640.50;1280.00;;;;;;5075589;28;20365;-64
2021/05/02 10:03:50;;;;;;;17.65;3.35;;;640.60;1254.40;;;;;;5075573;28;20368;-66
2021/05/02 10:06:32;;;;;;;19.15;4.55;;;640.50;1254.40;;;;;;5076068;28;20017;-62
2021/05/02 10:09:08;;;;;;;22.40;4.23;;;640.60;1280.00;;;;;;5075809;28;20464;-61
2021/05/02 10:11:35;;;;;;;15.35;3.28;;;640.60;1305.60;;;;;;5075365;28;20392;-63
2021/05/02 10:14:04;;;;;;;22.98;3.40;;;640.70;1305.60;;;;;;5075431;28;20438;-63
2021/05/02 10:16:30;;;;;;;20.77;3.65;;;640.70;1280.00;;;;;;5074607;28;20428;-62
2021/05/02 10:18:58;;;;;;;22.70;3.90;;;640.70;1331.20;;;;;;5075725;28;20446;-62
2021/05/02 10:21:25;;;;;;;22.75;3.83;;;640.70;1280.00;;;;;;5075191;28;20012;-63
2021/05/02 10:23:51;;;;;;;25.02;3.90;;;640.70;1228.80;;;;;;5075179;28;20392;-62
2021/05/02 10:26:17;;;;;;;19.25;3.30;;;640.60;1228.80;;;;;;5075342;28;20366;-63
2021/05/02 10:28:47;;;;;;;22.20;3.60;;;640.50;1254.40;;;;;;5075017;28;20417;-68
2021/05/02 10:31:15;;;;;;;22.65;3.47;;;640.40;1280.00;;;;;;5074961;28;20365;-62
2021/05/02 10:33:45;;;;;;;21.75;3.45;;;640.40;1280.00;;;;;;5074873;28;20368;-62
2021/05/02 10:36:12;;;;;;;19.95;3.78;;;640.50;1254.40;;;;;;5074945;28;20425;-61
2021/05/02 10:38:56;;;;;;;16.83;3.58;;;640.60;1254.40;;;;;;5075333;28;20396;-69
2021/05/02 10:41:29;;;;;;;17.17;3.70;;;640.70;1228.80;;;;;;5075055;28;20360;-61
2021/05/02 10:43:59;;;;;;;;;;;640.80;1280.00;;;;;;5075688;28;20388;-63
2021/05/02 10:46:57;;;;;;;20.90;3.45;;;665.60;1254.40;;;;;;5074641;28;20333;-62
2021/05/02 10:49:23;;;;;;;18.90;3.47;;;640.70;1228.80;;;;;;5075171;28;20377;-63
2021/05/02 10:51:54;;;;;;;16.35;3.75;;;640.70;1203.20;;;;;;5074810;28;20361;-71
2021/05/02 10:54:42;;;;;;;19.15;4.38;;;640.50;1254.40;;;;;;5074557;28;20343;-63
2021/05/02 10:57:28;;;;;;;19.45;3.75;;;640.30;1228.80;;;;;;5074333;28;20416;-68
2021/05/02 11:00:11;;;;;;;19.27;4.55;;;640.20;1254.40;;;;;;5074519;28;20396;-63
2021/05/02 11:02:45;;;;;;;18.98;3.90;;;640.20;1228.80;;;;;;5074345;28;20024;-62
2021/05/02 11:05:18;;;;;;;20.75;4.90;;;640.20;1254.40;;;;;;5074280;28;20365;-65
2021/05/02 11:07:47;;;;;;;23.02;4.13;;;640.20;1228.80;;;;;;5073964;28;20358;-62
2021/05/02 11:10:16;;;;;;;22.98;4.72;;;640.30;1254.40;;;;;;5074230;28;20388;-70
2021/05/02 11:12:43;;;;;;;21.02;4.38;;;640.30;1254.40;;;;;;5074103;28;20485;-64
2021/05/02 11:15:41;;;;;;;20.90;3.85;;;640.40;1254.40;;;;;;5074674;28;20416;-64
2021/05/02 11:18:21;;;;;;;15.20;3.13;;;640.60;1177.60;;;;;;5012494;28;20430;-70
2021/05/02 11:20:53;;;;;;;14.70;3.10;;;640.60;1203.20;;;;;;5012520;28;20444;-66
2021/05/02 11:23:54;;;;;;;19.67;3.97;;;640.70;1254.40;;;;;;5012396;28;20379;-62
2021/05/02 11:27:09;;;;;;;17.90;2.95;;;665.60;1228.80;;;;;;5011845;28;20375;-63
2021/05/02 11:30:07;;;;;;;15.95;2.72;;;640.80;1177.60;;;;;;5012225;28;20366;-62
2021/05/02 11:32:39;;;;;;;13.98;3.10;;;640.60;1126.40;;;;;;5006212;28;20469;-62
2021/05/02 11:35:13;;;;;;;15.50;3.28;;;640.80;1203.20;;;;;;5011875;28;20054;-62
2021/05/02 11:37:54;;;;;;;14.98;3.53;;;640.80;1203.20;;;;;;5012104;28;20112;-64
2021/05/02 11:40:32;;;;;;;13.98;3.38;;;640.80;1177.60;;;;;;5012778;28;20038;-62
2021/05/02 11:43:02;;;;;;;14.55;3.67;;;640.80;1126.40;;;;;;5012636;28;20371;-62
2021/05/02 11:45:41;;;;;;;19.45;3.80;;;640.90;1152.00;;;;;;5012051;28;20370;-63
2021/05/02 11:48:08;;;;;;;12.75;3.40;;;665.60;1177.60;;;;;;5012435;28;20427;-63
2021/05/02 11:50:42;;;;;;;17.50;3.60;;;665.60;1177.60;;;;;;5011872;28;20370;-64
2021/05/02 11:53:08;;;;;;;16.80;3.85;;;665.70;1152.00;;;;;;5028357;28;20373;-72
2021/05/02 11:55:42;;;;;;;19.88;3.85;;;665.80;1203.20;;;;;;5073552;28;20339;-63
2021/05/02 11:58:14;;;;;;;19.23;4.07;;;665.80;1177.60;;;;;;5073477;28;20381;-64
2021/05/02 12:00:47;;;;;;;13.77;3.47;;;665.80;1177.60;;;;;;5074209;28;20353;-66
2021/05/02 12:03:14;;;;;;;;;;;665.90;1177.60;;;;;;5073811;28;20373;-65
2021/05/02 12:05:51;;;;;;;16.55;3.63;;;666.00;1152.00;;;;;;5073772;28;20226;-62
2021/05/02 12:08:20;;;;;;;18.10;3.38;;;666.00;1152.00;;;;;;5073371;28;20365;-72
2021/05/02 12:11:02;;;;;;;16.65;3.30;;;666.00;1126.40;;;;;;5073341;28;20373;-64
2021/05/02 12:13:36;;;;;;;13.23;3.85;;;666.10;1177.60;;;;;;5073964;28;20335;-66
2021/05/02 12:16:11;;;;;;;16.13;2.83;;;666.10;1152.00;;;;;;5073350;28;20373;-63
2021/05/02 12:18:57;;;;;;;26.45;4.10;;;666.10;1126.40;;;;;;5073599;28;20358;-62
2021/05/02 12:21:34;;;;;;;25.52;6.10;;;666.10;1100.80;;;;;;5073427;28;20381;-63
2021/05/02 12:24:05;;;;;;;227.68;172.90;;;666.10;1100.80;;;;;;5073234;28;20365;-63
2021/05/02 12:26:32;;;;;;;56.40;34.53;;;666.30;1100.80;;;;;;5073285;28;20357;-63